createdAt,value
2019-03-30T00:00:46.764Z,50.11
2019-03-30T00:03:17.089Z,50.49
2019-03-30T00:05:47.323Z,50.93
2019-03-30T00:08:17.640Z,51.09
2019-03-30T00:10:47.767Z,50.69
2019-03-30T00:13:18.081Z,51.16
2019-03-30T00:15:48.037Z,51.35
2019-03-30T00:18:18.169Z,51.52
2019-03-30T00:20:48.367Z,51.77
2019-03-30T00:23:18.561Z,51.75
2019-03-30T00:25:48.718Z,51.93
2019-03-30T00:28:18.920Z,51.91
2019-03-30T00:30:49.175Z,52.03
2019-03-30T00:33:19.336Z,52.32
2019-03-30T00:35:49.448Z,52.36
2019-03-30T00:38:19.641Z,52.61
2019-03-30T00:40:49.842Z,53.27
2019-03-30T00:43:20.125Z,53.27
2019-03-30T00:45:50.534Z,53.00
2019-03-30T00:48:20.766Z,53.39
2019-03-30T00:50:50.867Z,53.68
2019-03-30T00:53:20.953Z,53.90
2019-03-30T00:55:51.128Z,53.73
2019-03-30T00:58:21.330Z,54.41
2019-03-30T01:00:51.464Z,55.03
2019-03-30T01:03:21.543Z,55.45
2019-03-30T01:05:51.722Z,55.53
2019-03-30T01:08:22.005Z,55.43
2019-03-30T01:10:52.271Z,55.08
2019-03-30T01:13:22.564Z,55.12
2019-03-30T01:15:52.987Z,55.30
2019-03-30T01:18:23.349Z,54.97
2019-03-30T01:20:53.635Z,55.30
2019-03-30T01:23:23.861Z,55.65
2019-03-30T01:25:54.329Z,55.60
2019-03-30T01:28:24.511Z,55.34
2019-03-30T01:30:54.683Z,55.48
2019-03-30T01:33:24.859Z,55.82
2019-03-30T01:35:55.057Z,56.40
2019-03-30T01:38:25.253Z,56.60
2019-03-30T01:40:55.437Z,57.03
2019-03-30T01:43:25.515Z,57.15
2019-03-30T01:45:55.612Z,57.48
2019-03-30T01:48:25.910Z,57.82
2019-03-30T01:50:56.108Z,58.15
2019-03-30T01:53:26.512Z,58.49
2019-03-30T01:55:56.728Z,58.35
2019-03-30T01:58:26.861Z,58.44
2019-03-30T02:00:57.106Z,58.80
2019-03-30T02:03:27.288Z,58.82
2019-03-30T02:05:57.511Z,58.51
2019-03-30T02:08:27.442Z,58.74
2019-03-30T02:10:57.647Z,58.63
2019-03-30T02:13:27.921Z,58.81
2019-03-30T02:15:57.938Z,59.14
2019-03-30T02:18:28.216Z,59.39
2019-03-30T02:20:58.431Z,58.95
2019-03-30T02:23:28.726Z,57.87
2019-03-30T02:25:59.070Z,57.79
2019-03-30T02:28:29.294Z,57.00
2019-03-30T02:30:59.553Z,56.47
2019-03-30T02:33:29.693Z,57.06
2019-03-30T02:36:00.075Z,56.74
2019-03-30T02:38:30.091Z,56.92
2019-03-30T02:41:00.021Z,57.23
2019-03-30T02:43:29.964Z,57.26
2019-03-30T02:45:59.974Z,57.56
2019-03-30T02:48:30.161Z,57.44
2019-03-30T02:51:00.257Z,56.63
2019-03-30T02:53:30.417Z,56.40
2019-03-30T02:56:00.338Z,56.80
2019-03-30T02:58:30.455Z,56.08
2019-03-30T03:01:00.639Z,55.66
2019-03-30T03:03:30.855Z,55.17
2019-03-30T03:06:00.982Z,55.06
2019-03-30T03:08:31.053Z,55.41
2019-03-30T03:11:01.331Z,55.22
2019-03-30T03:13:31.536Z,55.54
2019-03-30T03:16:01.658Z,54.97
2019-03-30T03:18:31.782Z,54.75
2019-03-30T03:21:07.882Z,55.01
2019-03-30T03:23:34.051Z,55.54
2019-03-30T03:26:04.178Z,55.72
2019-03-30T03:28:34.320Z,55.49
2019-03-30T03:31:04.366Z,56.35
2019-03-30T03:33:34.752Z,56.51
2019-03-30T03:36:05.063Z,56.32
2019-03-30T03:38:34.998Z,56.90
2019-03-30T03:41:05.019Z,57.46
2019-03-30T03:43:35.325Z,56.78
2019-03-30T03:46:05.536Z,56.70
2019-03-30T03:48:35.467Z,55.33
2019-03-30T03:51:05.823Z,55.58
2019-03-30T03:53:36.718Z,56.15
2019-03-30T03:56:06.925Z,56.23
2019-03-30T03:58:37.465Z,56.10
2019-03-30T04:01:07.785Z,56.40
2019-03-30T04:03:38.735Z,56.58
2019-03-30T04:06:09.051Z,56.46
2019-03-30T04:08:39.076Z,56.51
2019-03-30T04:11:10.584Z,56.81
2019-03-30T04:13:42.913Z,57.12
2019-03-30T04:16:13.113Z,56.87
2019-03-30T04:18:47.780Z,56.95
2019-03-30T04:21:15.149Z,57.27
2019-03-30T04:23:45.371Z,57.57
2019-03-30T04:26:15.695Z,58.16
2019-03-30T04:28:45.848Z,58.27
2019-03-30T04:31:15.970Z,58.13
2019-03-30T04:33:46.154Z,58.39
2019-03-30T04:36:16.321Z,58.79
2019-03-30T04:38:46.537Z,58.60
2019-03-30T04:41:16.641Z,57.75
2019-03-30T04:43:46.809Z,57.67
2019-03-30T04:46:16.848Z,58.07
2019-03-30T04:48:46.868Z,58.42
2019-03-30T04:51:17.036Z,58.80
2019-03-30T04:53:47.047Z,58.47
2019-03-30T04:56:16.990Z,57.61
2019-03-30T04:58:47.111Z,57.90
2019-03-30T05:01:17.328Z,57.76
2019-03-30T05:03:47.338Z,57.16
2019-03-30T05:06:17.519Z,57.59
2019-03-30T05:08:47.613Z,57.18
2019-03-30T05:11:17.635Z,57.36
2019-03-30T05:13:47.894Z,57.25
2019-03-30T05:16:17.815Z,57.04
2019-03-30T05:18:48.060Z,55.70
2019-03-30T05:21:18.253Z,53.61
2019-03-30T05:23:48.568Z,53.88
2019-03-30T05:26:18.482Z,53.79
2019-03-30T05:28:48.552Z,54.28
2019-03-30T05:31:18.567Z,52.62
2019-03-30T05:33:48.740Z,52.24
2019-03-30T05:36:19.016Z,52.15
2019-03-30T05:38:49.179Z,52.31
2019-03-30T05:41:19.283Z,52.26
2019-03-30T05:43:49.518Z,51.97
2019-03-30T05:46:19.740Z,51.62
2019-03-30T05:48:49.963Z,51.95
2019-03-30T05:51:19.910Z,52.52
2019-03-30T05:53:50.039Z,52.74
2019-03-30T05:56:20.195Z,51.22
2019-03-30T05:58:50.441Z,49.92
2019-03-30T06:01:20.652Z,49.79
2019-03-30T06:03:50.723Z,49.95
2019-03-30T06:06:20.984Z,49.47
2019-03-30T06:08:51.196Z,49.01
2019-03-30T06:11:21.270Z,49.15
2019-03-30T06:13:51.561Z,49.59
2019-03-30T06:16:21.658Z,49.85
2019-03-30T06:18:51.737Z,50.04
2019-03-30T06:21:22.021Z,48.27
2019-03-30T06:23:52.373Z,47.74
2019-03-30T06:26:22.644Z,47.67
2019-03-30T06:28:52.816Z,47.16
2019-03-30T06:31:23.412Z,46.06
2019-03-30T06:33:53.430Z,46.54
2019-03-30T06:36:23.590Z,46.07
2019-03-30T06:38:53.645Z,45.32
2019-03-30T06:41:24.047Z,44.12
2019-03-30T06:43:54.083Z,44.14
2019-03-30T06:46:24.358Z,43.84
2019-03-30T06:48:54.552Z,43.50
2019-03-30T06:51:24.774Z,42.57
2019-03-30T06:53:54.993Z,42.54
2019-03-30T06:56:25.002Z,42.54
2019-03-30T06:58:55.239Z,42.72
2019-03-30T07:01:25.661Z,42.50
2019-03-30T07:03:56.031Z,42.22
2019-03-30T07:06:28.885Z,42.53
2019-03-30T07:09:00.304Z,42.10
2019-03-30T07:11:33.389Z,42.18
2019-03-30T07:14:04.954Z,42.48
2019-03-30T07:16:37.281Z,42.57
2019-03-30T07:19:07.441Z,42.30
2019-03-30T07:21:37.378Z,41.90
2019-03-30T07:24:07.577Z,41.81
2019-03-30T07:26:37.625Z,41.88
2019-03-30T07:29:09.852Z,42.19
2019-03-30T07:31:40.086Z,42.18
2019-03-30T07:34:11.313Z,42.37
2019-03-30T07:36:41.235Z,42.67
2019-03-30T07:39:11.296Z,42.46
2019-03-30T07:41:41.487Z,42.98
2019-03-30T07:44:11.701Z,43.64
2019-03-30T07:46:41.629Z,43.95
2019-03-30T07:49:11.842Z,44.00
2019-03-30T07:51:42.172Z,44.27
2019-03-30T07:54:12.520Z,44.13
2019-03-30T07:56:43.705Z,43.95
2019-03-30T07:59:13.901Z,44.27
2019-03-30T08:01:43.925Z,44.28
2019-03-30T08:04:14.184Z,44.42
2019-03-30T08:06:44.304Z,44.12
2019-03-30T08:09:14.245Z,44.00
2019-03-30T08:11:44.488Z,43.97
2019-03-30T08:14:14.425Z,43.63
2019-03-30T08:16:44.459Z,43.73
2019-03-30T08:19:14.706Z,43.70
2019-03-30T08:21:46.348Z,43.64
2019-03-30T08:24:16.293Z,42.67
2019-03-30T08:26:46.604Z,42.90
2019-03-30T08:29:16.808Z,42.36
2019-03-30T08:31:49.916Z,41.92
2019-03-30T08:34:19.186Z,41.90
2019-03-30T08:36:51.131Z,41.33
2019-03-30T08:39:21.373Z,40.86
2019-03-30T08:41:51.502Z,41.24
2019-03-30T08:44:21.459Z,39.09
2019-03-30T08:46:51.688Z,37.13
2019-03-30T08:49:21.959Z,37.91
2019-03-30T08:51:53.212Z,38.89
2019-03-30T08:54:23.362Z,36.91
2019-03-30T08:56:54.908Z,37.98
2019-03-30T08:59:25.810Z,36.13
2019-03-30T09:01:56.449Z,36.03
2019-03-30T09:04:26.719Z,35.86
2019-03-30T09:06:56.749Z,35.53
2019-03-30T09:09:27.002Z,35.55
2019-03-30T09:11:56.943Z,35.77
2019-03-30T09:14:27.413Z,35.45
2019-03-30T09:16:57.452Z,35.53
2019-03-30T09:19:27.656Z,36.22
2019-03-30T09:21:57.741Z,37.05
2019-03-30T09:24:27.683Z,37.24
2019-03-30T09:26:57.892Z,37.32
2019-03-30T09:29:28.056Z,36.60
2019-03-30T09:31:58.072Z,37.02
2019-03-30T09:34:28.700Z,36.85
2019-03-30T09:36:58.920Z,37.04
2019-03-30T09:39:28.854Z,37.06
2019-03-30T09:41:59.215Z,35.78
2019-03-30T09:44:31.643Z,36.49
2019-03-30T09:47:01.853Z,36.53
2019-03-30T09:49:31.925Z,36.45
2019-03-30T09:52:02.111Z,36.72
2019-03-30T09:54:32.414Z,36.61
2019-03-30T09:57:03.051Z,36.13
2019-03-30T09:59:33.322Z,36.52
2019-03-30T10:02:03.494Z,36.37
2019-03-30T10:04:33.688Z,35.47
2019-03-30T10:07:03.795Z,35.59
2019-03-30T10:09:34.078Z,35.27
2019-03-30T10:12:04.092Z,33.82
2019-03-30T10:14:34.290Z,33.25
2019-03-30T10:17:04.424Z,33.85
2019-03-30T10:19:34.726Z,33.29
2019-03-30T10:22:05.049Z,32.89
2019-03-30T10:24:38.380Z,34.13
2019-03-30T10:27:07.036Z,34.44
2019-03-30T10:29:37.292Z,34.01
2019-03-30T10:32:07.554Z,33.66
2019-03-30T10:34:39.670Z,34.04
2019-03-30T10:37:09.508Z,34.23
2019-03-30T10:39:39.664Z,34.02
2019-03-30T10:42:09.604Z,33.88
2019-03-30T10:44:39.742Z,34.54
2019-03-30T10:47:09.981Z,33.95
2019-03-30T10:49:40.140Z,33.14
2019-03-30T10:52:10.297Z,32.72
2019-03-30T10:54:52.119Z,33.45
2019-03-30T10:57:12.238Z,32.96
2019-03-30T10:59:42.266Z,31.85
2019-03-30T11:02:12.486Z,32.02
2019-03-30T11:04:42.809Z,32.80
2019-03-30T11:07:13.011Z,31.85
2019-03-30T11:09:43.013Z,29.96
2019-03-30T11:12:13.242Z,27.33
2019-03-30T11:14:43.472Z,26.15
2019-03-30T11:17:13.435Z,26.95
2019-03-30T11:19:43.614Z,26.57
2019-03-30T11:22:13.861Z,27.17
2019-03-30T11:24:44.059Z,29.34
2019-03-30T11:27:14.210Z,30.70
2019-03-30T11:29:44.400Z,31.52
2019-03-30T11:32:14.779Z,32.20
2019-03-30T11:34:45.029Z,32.19
2019-03-30T11:37:15.151Z,33.33
2019-03-30T11:39:45.283Z,33.94
2019-03-30T11:42:15.644Z,33.60
2019-03-30T11:44:45.948Z,34.16
2019-03-30T11:47:15.966Z,33.74
2019-03-30T11:49:45.911Z,32.86
2019-03-30T11:52:16.141Z,30.53
2019-03-30T11:54:46.297Z,28.30
2019-03-30T11:57:16.615Z,25.88
2019-03-30T11:59:46.852Z,23.05
2019-03-30T12:02:27.329Z,21.79
2019-03-30T12:04:48.881Z,19.37
2019-03-30T12:07:19.040Z,20.27
2019-03-30T12:09:49.121Z,20.98
2019-03-30T12:12:19.891Z,20.37
2019-03-30T12:14:49.970Z,18.37
2019-03-30T12:17:20.297Z,15.92
2019-03-30T12:19:50.465Z,15.90
2019-03-30T12:22:21.170Z,14.88
2019-03-30T12:24:51.452Z,15.31
2019-03-30T12:27:21.635Z,15.83
2019-03-30T12:29:51.954Z,16.51
2019-03-30T12:32:22.377Z,16.74
2019-03-30T12:34:52.316Z,16.07
2019-03-30T12:37:22.353Z,15.29
2019-03-30T12:39:52.530Z,14.33
2019-03-30T12:42:22.650Z,14.32
2019-03-30T12:44:52.868Z,13.73
2019-03-30T12:47:23.046Z,13.18
2019-03-30T12:49:53.201Z,13.52
2019-03-30T12:52:26.371Z,13.10
2019-03-30T12:54:55.189Z,13.04
2019-03-30T12:57:25.189Z,12.99
2019-03-30T12:59:55.331Z,13.88
2019-03-30T13:02:25.647Z,13.09
2019-03-30T13:04:55.893Z,13.45
2019-03-30T13:07:26.081Z,13.10
2019-03-30T13:09:56.207Z,13.39
2019-03-30T13:12:26.451Z,13.37
2019-03-30T13:14:56.626Z,13.36
2019-03-30T13:17:26.757Z,13.17
2019-03-30T13:19:56.904Z,13.60
2019-03-30T13:22:27.571Z,13.52
2019-03-30T13:24:57.744Z,14.22
2019-03-30T13:27:27.947Z,15.54
2019-03-30T13:29:58.087Z,16.68
2019-03-30T13:32:28.118Z,16.78
2019-03-30T13:34:58.327Z,16.20
2019-03-30T13:37:28.354Z,16.20
2019-03-30T13:39:58.661Z,16.12
2019-03-30T13:42:28.611Z,16.75
2019-03-30T13:44:58.739Z,17.14
2019-03-30T13:47:28.770Z,18.76
2019-03-30T13:49:58.828Z,20.02
2019-03-30T13:52:28.761Z,21.05
2019-03-30T13:54:59.008Z,21.50
2019-03-30T13:57:29.051Z,22.26
2019-03-30T13:59:59.296Z,22.55
2019-03-30T14:02:29.429Z,22.86
2019-03-30T14:04:59.379Z,23.63
2019-03-30T14:07:29.586Z,24.09
2019-03-30T14:09:59.883Z,24.08
2019-03-30T14:12:31.056Z,24.17
2019-03-30T14:15:01.044Z,25.19
2019-03-30T14:17:31.079Z,25.57
2019-03-30T14:20:01.277Z,26.07
2019-03-30T14:22:31.478Z,27.17
2019-03-30T14:25:01.632Z,27.76
2019-03-30T14:27:31.671Z,28.48
2019-03-30T14:30:01.686Z,28.34
2019-03-30T14:32:31.604Z,28.68
2019-03-30T14:35:01.794Z,29.07
2019-03-30T14:37:31.830Z,29.34
2019-03-30T14:40:02.006Z,30.47
2019-03-30T14:42:31.970Z,30.46
2019-03-30T14:45:02.140Z,30.87
2019-03-30T14:47:32.400Z,32.11
2019-03-30T14:50:02.576Z,32.23
2019-03-30T14:52:32.718Z,31.72
2019-03-30T14:55:02.693Z,32.01
2019-03-30T14:57:32.895Z,33.00
2019-03-30T15:00:03.132Z,33.09
2019-03-30T15:02:33.352Z,33.16
2019-03-30T15:05:03.614Z,33.55
2019-03-30T15:07:33.553Z,33.64
2019-03-30T15:10:03.638Z,34.04
2019-03-30T15:12:34.192Z,34.28
2019-03-30T15:15:04.479Z,34.57
2019-03-30T15:17:34.583Z,35.20
2019-03-30T15:20:04.897Z,34.49
2019-03-30T15:22:34.850Z,34.75
2019-03-30T15:25:05.450Z,34.73
2019-03-30T15:27:35.595Z,34.36
2019-03-30T15:30:06.041Z,34.96
2019-03-30T15:32:36.343Z,35.02
2019-03-30T15:35:06.742Z,35.05
2019-03-30T15:37:37.007Z,34.66
2019-03-30T15:40:07.482Z,35.06
2019-03-30T15:42:40.226Z,35.04
2019-03-30T15:45:09.365Z,35.78
2019-03-30T15:47:39.736Z,35.74
2019-03-30T15:50:10.437Z,36.06
2019-03-30T15:52:40.677Z,36.10
2019-03-30T15:55:11.217Z,36.18
2019-03-30T15:57:41.592Z,36.24
2019-03-30T16:00:13.197Z,36.22
2019-03-30T16:02:43.530Z,36.80
2019-03-30T16:05:15.655Z,37.01
2019-03-30T16:07:45.954Z,37.47
2019-03-30T16:10:16.331Z,37.12
2019-03-30T16:12:46.526Z,37.28
2019-03-30T16:15:16.858Z,37.26
2019-03-30T16:17:46.985Z,37.57
2019-03-30T16:20:17.305Z,37.92
2019-03-30T16:22:47.963Z,38.13
2019-03-30T16:25:17.960Z,38.54
2019-03-30T16:27:48.278Z,38.43
2019-03-30T16:30:18.472Z,38.72
2019-03-30T16:32:48.499Z,39.32
2019-03-30T16:35:18.470Z,39.22
2019-03-30T16:37:48.451Z,39.53
2019-03-30T16:40:18.829Z,39.15
2019-03-30T16:42:48.989Z,39.58
2019-03-30T16:45:19.155Z,40.12
2019-03-30T16:47:49.325Z,40.64
2019-03-30T16:50:19.537Z,40.87
2019-03-30T16:52:50.717Z,41.26
2019-03-30T16:55:20.835Z,41.97
2019-03-30T16:57:51.044Z,42.07
2019-03-30T17:00:21.355Z,42.39
2019-03-30T17:02:51.571Z,42.49
2019-03-30T17:05:21.709Z,43.26
2019-03-30T17:07:51.934Z,43.72
2019-03-30T17:10:22.475Z,43.82
2019-03-30T17:12:52.994Z,43.91
2019-03-30T17:15:24.718Z,44.16
2019-03-30T17:17:55.044Z,44.42
2019-03-30T17:20:25.071Z,45.08
2019-03-30T17:22:58.602Z,45.49
2019-03-30T17:25:27.178Z,45.13
2019-03-30T17:27:59.004Z,45.44
2019-03-30T17:30:29.335Z,45.86
2019-03-30T17:32:59.323Z,46.43
2019-03-30T17:35:29.699Z,46.89
2019-03-30T17:37:59.891Z,47.21
2019-03-30T17:40:30.551Z,47.63
2019-03-30T17:43:00.913Z,48.13
2019-03-30T17:45:31.165Z,48.56
2019-03-30T17:48:01.289Z,48.54
2019-03-30T17:50:31.627Z,48.96
2019-03-30T17:53:01.895Z,48.96
2019-03-30T17:55:34.096Z,48.82
2019-03-30T17:58:12.921Z,48.99
2019-03-30T18:00:35.889Z,49.16
2019-03-30T18:03:07.331Z,49.13
2019-03-30T18:05:37.490Z,49.03
2019-03-30T18:08:07.398Z,49.11
2019-03-30T18:10:37.612Z,49.32
2019-03-30T18:13:11.307Z,49.14
2019-03-30T18:15:43.437Z,49.17
2019-03-30T18:18:13.682Z,49.39
2019-03-30T18:20:44.407Z,49.58
2019-03-30T18:23:14.623Z,49.40
2019-03-30T18:25:44.631Z,49.60
2019-03-30T18:28:26.539Z,49.55
2019-03-30T18:30:51.289Z,49.84
2019-03-30T18:33:21.267Z,49.74
2019-03-30T18:35:52.084Z,49.87
2019-03-30T18:38:22.977Z,50.33
2019-03-30T18:40:53.229Z,50.25
2019-03-30T18:43:23.442Z,50.33
2019-03-30T18:45:53.945Z,49.80
2019-03-30T18:48:24.133Z,49.20
2019-03-30T18:50:54.310Z,48.45
2019-03-30T18:53:25.519Z,47.37
2019-03-30T18:55:55.688Z,47.35
2019-03-30T18:58:40.762Z,46.76
2019-03-30T19:00:59.723Z,46.69
2019-03-30T19:03:29.960Z,46.45
2019-03-30T19:06:00.271Z,46.33
2019-03-30T19:08:30.266Z,46.52
2019-03-30T19:11:00.499Z,46.13
2019-03-30T19:13:32.838Z,46.07
2019-03-30T19:16:02.936Z,45.97
2019-03-30T19:18:33.047Z,46.08
2019-03-30T19:21:03.596Z,45.97
2019-03-30T19:23:34.561Z,45.91
2019-03-30T19:26:06.085Z,45.82
2019-03-30T19:28:36.179Z,45.92
2019-03-30T19:31:06.342Z,46.03
2019-03-30T19:33:37.015Z,46.32
2019-03-30T19:36:10.107Z,46.34
2019-03-30T19:38:42.545Z,46.34
2019-03-30T19:41:12.800Z,46.40
2019-03-30T19:43:43.526Z,46.47
2019-03-30T19:46:13.749Z,46.28
2019-03-30T19:48:44.749Z,46.18
2019-03-30T19:51:15.967Z,46.13
2019-03-30T19:53:46.149Z,46.31
2019-03-30T19:56:16.396Z,46.33
2019-03-30T19:58:46.568Z,46.32
2019-03-30T20:01:17.445Z,46.36
2019-03-30T20:03:48.783Z,46.46
2019-03-30T20:06:18.768Z,46.28
2019-03-30T20:08:48.867Z,46.23
2019-03-30T20:11:20.869Z,46.38
2019-03-30T20:13:51.076Z,46.18
2019-03-30T20:16:21.196Z,46.19
2019-03-30T20:18:51.433Z,46.65
2019-03-30T20:21:21.643Z,46.31
2019-03-30T20:23:51.801Z,46.33
2019-03-30T20:26:22.038Z,46.23
2019-03-30T20:28:52.220Z,46.41
2019-03-30T20:31:22.509Z,46.38
2019-03-30T20:33:52.755Z,46.17
2019-03-30T20:36:22.861Z,46.27
2019-03-30T20:38:53.083Z,46.25
2019-03-30T20:41:23.247Z,46.25
2019-03-30T20:43:53.403Z,46.11
2019-03-30T20:46:23.897Z,45.92
2019-03-30T20:48:54.073Z,45.92
2019-03-30T20:51:24.435Z,45.82
2019-03-30T20:53:54.681Z,45.70
2019-03-30T20:56:24.842Z,45.72
2019-03-30T20:58:55.938Z,45.88
2019-03-30T21:01:26.149Z,46.07
2019-03-30T21:03:56.279Z,46.25
2019-03-30T21:06:26.526Z,46.32
2019-03-30T21:08:56.466Z,46.25
2019-03-30T21:11:26.457Z,46.31
2019-03-30T21:13:57.030Z,46.59
2019-03-30T21:16:27.176Z,46.72
2019-03-30T21:18:57.324Z,46.91
2019-03-30T21:21:27.314Z,47.25
2019-03-30T21:23:57.585Z,47.63
2019-03-30T21:26:28.789Z,48.03
2019-03-30T21:28:59.039Z,48.41
2019-03-30T21:31:31.477Z,48.74
2019-03-30T21:34:01.727Z,49.20
2019-03-30T21:36:31.885Z,49.45
2019-03-30T21:39:02.123Z,49.52
2019-03-30T21:41:32.322Z,49.54
2019-03-30T21:44:02.478Z,49.93
2019-03-30T21:46:32.621Z,50.44
2019-03-30T21:49:02.979Z,50.48
2019-03-30T21:51:33.179Z,51.01
2019-03-30T21:54:03.104Z,51.31
2019-03-30T21:56:33.321Z,51.73
2019-03-30T21:59:03.366Z,52.21
2019-03-30T22:01:33.540Z,52.59
2019-03-30T22:04:03.552Z,52.88
2019-03-30T22:06:34.102Z,53.55
2019-03-30T22:09:06.501Z,53.56
2019-03-30T22:11:36.742Z,53.95
2019-03-30T22:14:06.722Z,53.86
2019-03-30T22:16:36.875Z,53.83
2019-03-30T22:19:07.039Z,54.05
2019-03-30T22:21:37.040Z,54.35
2019-03-30T22:24:07.441Z,54.63
2019-03-30T22:26:37.410Z,55.07
2019-03-30T22:29:07.555Z,55.01
2019-03-30T22:31:37.776Z,55.48
2019-03-30T22:34:07.796Z,55.71
2019-03-30T22:36:37.858Z,56.10
2019-03-30T22:39:08.504Z,56.26
2019-03-30T22:41:38.435Z,56.19
2019-03-30T22:44:08.758Z,56.34
2019-03-30T22:46:38.903Z,56.57
2019-03-30T22:49:08.872Z,56.75
2019-03-30T22:51:39.102Z,57.03
2019-03-30T22:54:09.419Z,56.68
2019-03-30T22:56:39.528Z,56.77
2019-03-30T22:59:09.875Z,57.08
2019-03-30T23:01:39.940Z,57.46
2019-03-30T23:04:10.195Z,57.46
2019-03-30T23:06:40.177Z,57.14
2019-03-30T23:09:11.531Z,57.20
2019-03-30T23:11:42.022Z,57.45
2019-03-30T23:14:12.197Z,57.35
2019-03-30T23:16:42.166Z,57.40
2019-03-30T23:19:12.189Z,57.40
2019-03-30T23:21:42.149Z,57.96
2019-03-30T23:24:12.273Z,57.80
2019-03-30T23:26:42.553Z,57.90
2019-03-30T23:29:12.922Z,58.29
2019-03-30T23:31:42.930Z,58.25
2019-03-30T23:34:13.111Z,58.29
2019-03-30T23:36:43.116Z,58.59
2019-03-30T23:39:13.036Z,58.78
2019-03-30T23:41:43.273Z,58.96
2019-03-30T23:44:13.336Z,59.13
2019-03-30T23:46:43.499Z,59.37
2019-03-30T23:49:13.658Z,59.56
2019-03-30T23:51:43.709Z,59.84
2019-03-30T23:54:16.274Z,59.54
2019-03-30T23:56:46.470Z,59.50
2019-03-30T23:59:16.589Z,59.78
